Savannah, Georgia
Current Conditions -  °F | °C
As of 6:58 AM on Monday 20 Oct 2014 (Local Time) from KSVN Reporting Station
Clear Clear  
Wind Chill: 55°   Ceiling: Unl
Heat Index: 55°   Visibility: 10mi
Dew Point: 51°   Wind: 3mph
Humidity: 88%   Direction: 20°NNE
Pressure: 30.08"   Gusts: NA
Location:  32.08°N, 81.09°W
Report Text: KSVN 201058Z AUTO 02003KT 10SM CLR 13/11 A3008 RMK AO2 SLP189 T01260107
Loading
Personal Weather Stations






























Interactive Weather Map
Tropical Storm Tracking
New forecast layout! Learn more

10-Day Weather Forecast

Advertisements
Track Severe Weather on mobile